createdAt,value
2019-02-23T00:00:34.806Z,56.40
2019-02-23T00:01:17.722Z,56.60
2019-02-23T00:01:50.203Z,57.00
2019-02-23T00:02:22.658Z,57.00
2019-02-23T00:02:55.934Z,57.00
2019-02-23T00:03:28.438Z,57.00
2019-02-23T00:04:00.908Z,57.00
2019-02-23T00:04:33.660Z,57.00
2019-02-23T00:05:06.140Z,57.10
2019-02-23T00:05:38.800Z,56.80
2019-02-23T00:06:11.267Z,56.80
2019-02-23T00:06:44.124Z,57.00
2019-02-23T00:07:16.586Z,57.10
2019-02-23T00:07:49.409Z,57.00
2019-02-23T00:08:21.889Z,56.60
2019-02-23T00:08:54.740Z,57.10
2019-02-23T00:09:27.235Z,56.80
2019-02-23T00:10:00.008Z,56.80
2019-02-23T00:10:32.481Z,56.40
2019-02-23T00:11:05.313Z,56.30
2019-02-23T00:11:37.779Z,56.10
2019-02-23T00:12:10.252Z,56.20
2019-02-23T00:12:42.907Z,56.30
2019-02-23T00:13:15.380Z,56.10
2019-02-23T00:13:48.192Z,55.80
2019-02-23T00:14:20.881Z,55.60
2019-02-23T00:14:53.356Z,55.30
2019-02-23T00:15:26.117Z,55.20
2019-02-23T00:15:58.594Z,55.60
2019-02-23T00:16:31.086Z,55.60
2019-02-23T00:17:03.578Z,55.40
2019-02-23T00:17:36.051Z,55.30
2019-02-23T00:18:09.444Z,54.80
2019-02-23T00:18:42.208Z,54.20
2019-02-23T00:19:24.496Z,54.00
2019-02-23T00:19:48.978Z,53.50
2019-02-23T00:20:21.454Z,53.50
2019-02-23T00:20:53.930Z,53.50
2019-02-23T00:21:26.415Z,53.20
2019-02-23T00:21:58.914Z,53.10
2019-02-23T00:22:31.402Z,52.80
2019-02-23T00:23:03.881Z,52.50
2019-02-23T00:23:36.385Z,52.50
2019-02-23T00:24:08.858Z,52.30
2019-02-23T00:24:41.333Z,52.70
2019-02-23T00:25:13.818Z,52.40
2019-02-23T00:25:46.306Z,52.10
2019-02-23T00:26:19.389Z,52.10
2019-02-23T00:26:51.864Z,51.90
2019-02-23T00:27:24.376Z,51.70
2019-02-23T00:27:56.859Z,52.30
2019-02-23T00:28:29.720Z,52.30
2019-02-23T00:29:02.198Z,52.40
2019-02-23T00:29:34.972Z,52.10
2019-02-23T00:30:07.553Z,52.10
2019-02-23T00:30:40.044Z,52.20
2019-02-23T00:31:12.805Z,52.50
2019-02-23T00:31:45.288Z,52.80
2019-02-23T00:32:17.772Z,53.00
2019-02-23T00:32:50.271Z,53.20
2019-02-23T00:33:22.744Z,53.10
2019-02-23T00:33:55.638Z,52.90
2019-02-23T00:34:28.118Z,52.90
2019-02-23T00:35:00.615Z,53.00
2019-02-23T00:35:33.098Z,53.20
2019-02-23T00:36:05.584Z,53.30
2019-02-23T00:36:38.068Z,53.20
2019-02-23T00:37:10.543Z,53.20
2019-02-23T00:37:43.026Z,52.80
2019-02-23T00:38:15.547Z,52.40
2019-02-23T00:38:48.034Z,52.30
2019-02-23T00:39:20.529Z,52.50
2019-02-23T00:39:53.020Z,52.40
2019-02-23T00:40:25.481Z,52.60
2019-02-23T00:40:57.960Z,52.70
2019-02-23T00:41:30.422Z,52.70
2019-02-23T00:42:03.022Z,52.70
2019-02-23T00:42:35.515Z,52.60
2019-02-23T00:43:08.339Z,52.70
2019-02-23T00:43:41.619Z,52.80
2019-02-23T00:44:14.092Z,52.80
2019-02-23T00:44:46.575Z,52.80
2019-02-23T00:45:19.076Z,52.90
2019-02-23T00:45:51.551Z,53.00
2019-02-23T00:46:24.751Z,53.20
2019-02-23T00:46:57.232Z,53.50
2019-02-23T00:47:30.413Z,53.40
2019-02-23T00:48:03.627Z,53.00
2019-02-23T00:48:36.112Z,53.40
2019-02-23T00:49:09.078Z,53.80
2019-02-23T00:49:41.547Z,53.90
2019-02-23T00:50:14.069Z,53.70
2019-02-23T00:50:46.494Z,53.70
2019-02-23T00:51:18.974Z,53.50
2019-02-23T00:51:51.988Z,53.60
2019-02-23T00:52:24.808Z,54.20
2019-02-23T00:52:57.282Z,54.40
2019-02-23T00:53:29.791Z,54.40
2019-02-23T00:54:02.256Z,54.80
2019-02-23T00:54:35.071Z,54.70
2019-02-23T00:55:07.901Z,54.50
2019-02-23T00:55:40.381Z,54.50
2019-02-23T00:56:12.859Z,54.50
2019-02-23T00:56:45.349Z,54.70
2019-02-23T00:57:17.823Z,54.70
2019-02-23T00:57:50.773Z,54.80
2019-02-23T00:58:23.222Z,54.90
2019-02-23T00:58:55.690Z,55.00
2019-02-23T00:59:28.182Z,55.20
2019-02-23T01:00:01.072Z,55.20
2019-02-23T01:00:33.887Z,55.10
2019-02-23T01:01:07.366Z,55.10
2019-02-23T01:01:39.827Z,55.00
2019-02-23T01:02:12.308Z,55.00
2019-02-23T01:02:45.166Z,55.00
2019-02-23T01:03:17.921Z,55.30
2019-02-23T01:03:50.386Z,55.50
2019-02-23T01:04:23.292Z,55.60
2019-02-23T01:04:55.782Z,55.40
2019-02-23T01:05:28.287Z,54.90
2019-02-23T01:06:00.766Z,55.10
2019-02-23T01:06:33.252Z,55.00
2019-02-23T01:07:05.818Z,55.00
2019-02-23T01:07:38.600Z,54.80
2019-02-23T01:08:11.089Z,54.90
2019-02-23T01:08:44.169Z,54.90
2019-02-23T01:09:17.248Z,54.50
2019-02-23T01:09:50.101Z,54.10
2019-02-23T01:10:22.568Z,54.00
2019-02-23T01:10:58.018Z,53.70
2019-02-23T01:11:29.676Z,53.70
2019-02-23T01:12:02.149Z,54.00
2019-02-23T01:12:35.051Z,54.00
2019-02-23T01:13:07.846Z,53.80
2019-02-23T01:13:40.339Z,53.90
2019-02-23T01:14:13.188Z,53.50
2019-02-23T01:14:45.943Z,53.20
2019-02-23T01:15:18.428Z,53.10
2019-02-23T01:15:50.903Z,53.00
2019-02-23T01:16:23.395Z,53.40
2019-02-23T01:16:55.861Z,53.60
2019-02-23T01:17:28.659Z,54.10
2019-02-23T01:18:01.139Z,53.80
2019-02-23T01:18:33.620Z,53.90
2019-02-23T01:19:06.559Z,53.80
2019-02-23T01:19:47.278Z,53.80
2019-02-23T01:20:13.316Z,53.80
2019-02-23T01:20:46.216Z,54.20
2019-02-23T01:21:18.704Z,53.90
2019-02-23T01:21:51.198Z,53.90
2019-02-23T01:22:23.675Z,54.00
2019-02-23T01:22:56.156Z,53.70
2019-02-23T01:23:29.010Z,53.80
2019-02-23T01:24:01.491Z,53.80
2019-02-23T01:24:34.251Z,53.60
2019-02-23T01:25:07.224Z,53.80
2019-02-23T01:25:39.695Z,54.10
2019-02-23T01:26:12.452Z,54.20
2019-02-23T01:26:44.926Z,54.10
2019-02-23T01:27:17.430Z,54.00
2019-02-23T01:27:50.240Z,54.30
2019-02-23T01:28:22.736Z,54.40
2019-02-23T01:28:55.206Z,54.70
2019-02-23T01:29:28.436Z,54.90
2019-02-23T01:30:00.894Z,54.90
2019-02-23T01:30:33.751Z,55.10
2019-02-23T01:31:06.232Z,55.30
2019-02-23T01:31:39.100Z,55.60
2019-02-23T01:32:11.935Z,55.50
2019-02-23T01:32:44.434Z,55.40
2019-02-23T01:33:17.291Z,55.70
2019-02-23T01:33:49.775Z,55.60
2019-02-23T01:34:22.686Z,55.50
2019-02-23T01:34:55.158Z,55.20
2019-02-23T01:35:27.992Z,55.90
2019-02-23T01:36:00.463Z,55.60
2019-02-23T01:36:33.087Z,55.60
2019-02-23T01:37:05.966Z,55.60
2019-02-23T01:37:38.891Z,55.60
2019-02-23T01:38:12.093Z,55.70
2019-02-23T01:38:44.572Z,56.50
2019-02-23T01:39:17.063Z,55.80
2019-02-23T01:39:49.534Z,55.80
2019-02-23T01:40:21.998Z,55.70
2019-02-23T01:40:54.753Z,55.90
2019-02-23T01:41:27.329Z,56.00
2019-02-23T01:41:59.810Z,56.20
2019-02-23T01:42:32.296Z,56.40
2019-02-23T01:43:04.826Z,56.50
2019-02-23T01:43:37.630Z,56.40
2019-02-23T01:44:10.087Z,56.30
2019-02-23T01:44:42.862Z,56.10
2019-02-23T01:45:15.740Z,56.30
2019-02-23T01:45:48.216Z,56.10
2019-02-23T01:46:20.691Z,56.10
2019-02-23T01:46:53.167Z,56.00
2019-02-23T01:47:25.634Z,56.00
2019-02-23T01:47:58.560Z,55.80
2019-02-23T01:48:31.029Z,55.50
2019-02-23T01:49:03.878Z,55.20
2019-02-23T01:49:37.118Z,55.10
2019-02-23T01:50:10.159Z,55.10
2019-02-23T01:50:42.648Z,55.00
2019-02-23T01:51:15.123Z,55.00
2019-02-23T01:51:47.598Z,55.10
2019-02-23T01:52:20.484Z,55.00
2019-02-23T01:52:53.086Z,55.00
2019-02-23T01:53:25.919Z,55.30
2019-02-23T01:53:58.408Z,55.40
2019-02-23T01:54:30.923Z,55.50
2019-02-23T01:55:03.536Z,55.50
2019-02-23T01:55:36.003Z,55.60
2019-02-23T01:56:08.848Z,55.60
2019-02-23T01:56:41.634Z,55.50
2019-02-23T01:57:14.098Z,55.60
2019-02-23T01:57:46.876Z,55.70
2019-02-23T01:58:20.020Z,55.80
2019-02-23T01:58:52.497Z,55.70
2019-02-23T01:59:24.955Z,55.70
2019-02-23T01:59:57.468Z,55.80
2019-02-23T02:00:29.938Z,55.90
2019-02-23T02:01:02.420Z,56.10
2019-02-23T02:01:35.195Z,56.20
2019-02-23T02:02:08.473Z,56.10
2019-02-23T02:02:40.922Z,56.20
2019-02-23T02:03:13.704Z,56.30
2019-02-23T02:03:46.196Z,56.40
2019-02-23T02:04:19.298Z,56.60
2019-02-23T02:04:51.780Z,56.60
2019-02-23T02:05:24.325Z,56.40
2019-02-23T02:05:57.203Z,56.40
2019-02-23T02:06:29.767Z,56.40
2019-02-23T02:07:02.234Z,56.70
2019-02-23T02:07:35.027Z,57.20
2019-02-23T02:08:07.492Z,57.40
2019-02-23T02:08:40.885Z,57.50
2019-02-23T02:09:13.734Z,57.90
2019-02-23T02:09:46.225Z,58.20
2019-02-23T02:10:19.497Z,58.30
2019-02-23T02:10:52.029Z,58.40
2019-02-23T02:11:25.206Z,58.60
2019-02-23T02:11:57.781Z,58.70
2019-02-23T02:12:30.656Z,58.80
2019-02-23T02:13:03.120Z,58.90
2019-02-23T02:13:36.110Z,58.90
2019-02-23T02:14:08.950Z,59.60
2019-02-23T02:14:41.891Z,59.00
2019-02-23T02:15:14.471Z,59.10
2019-02-23T02:15:47.215Z,59.10
2019-02-23T02:16:20.067Z,59.20
2019-02-23T02:16:52.940Z,59.30
2019-02-23T02:17:25.433Z,59.30
2019-02-23T02:17:57.894Z,59.40
2019-02-23T02:18:30.722Z,59.50
2019-02-23T02:19:03.201Z,59.60
2019-02-23T02:19:35.733Z,59.60
2019-02-23T02:20:11.467Z,59.60
2019-02-23T02:20:43.588Z,59.60
2019-02-23T02:21:16.381Z,59.60
2019-02-23T02:21:48.888Z,59.80
2019-02-23T02:22:22.011Z,59.70
2019-02-23T02:22:54.783Z,59.70
2019-02-23T02:23:27.255Z,59.60
2019-02-23T02:23:59.734Z,59.40
2019-02-23T02:24:32.198Z,59.20
2019-02-23T02:25:05.185Z,59.30
2019-02-23T02:25:38.314Z,59.60
2019-02-23T02:26:10.789Z,59.60
2019-02-23T02:26:43.982Z,59.50
2019-02-23T02:27:16.469Z,59.30
2019-02-23T02:27:48.948Z,59.10
2019-02-23T02:28:21.415Z,58.80
2019-02-23T02:28:53.889Z,58.70
2019-02-23T02:29:26.372Z,58.60
2019-02-23T02:29:59.118Z,58.40
2019-02-23T02:30:31.604Z,58.30
2019-02-23T02:31:04.501Z,58.50
2019-02-23T02:31:36.976Z,58.60
2019-02-23T02:32:10.193Z,58.40
2019-02-23T02:32:42.702Z,58.40
2019-02-23T02:33:15.163Z,58.40
2019-02-23T02:34:06.142Z,58.50
2019-02-23T02:34:38.625Z,58.40
2019-02-23T02:35:11.416Z,58.40
2019-02-23T02:35:44.212Z,58.70
2019-02-23T02:36:16.682Z,58.90
2019-02-23T02:36:49.542Z,58.80
2019-02-23T02:37:22.009Z,58.90
2019-02-23T02:37:54.527Z,59.00
2019-02-23T02:39:00.311Z,59.00
2019-02-23T02:39:32.779Z,58.90
2019-02-23T02:40:06.826Z,58.80
2019-02-23T02:40:39.314Z,58.60
2019-02-23T02:41:11.798Z,58.40
2019-02-23T02:41:44.282Z,58.30
2019-02-23T02:42:16.751Z,58.40
2019-02-23T02:42:49.548Z,58.40
2019-02-23T02:43:22.064Z,58.30
2019-02-23T02:43:54.832Z,58.00
2019-02-23T02:44:27.657Z,58.10
2019-02-23T02:45:00.335Z,58.10
2019-02-23T02:45:32.814Z,58.10
2019-02-23T02:46:05.286Z,58.20
2019-02-23T02:46:37.819Z,58.40
2019-02-23T02:47:10.572Z,59.10
2019-02-23T02:47:43.047Z,58.60
2019-02-23T02:48:15.529Z,58.50
2019-02-23T02:48:48.360Z,58.20
2019-02-23T02:49:21.112Z,58.00
2019-02-23T02:49:53.583Z,57.80
2019-02-23T02:50:26.357Z,57.70
2019-02-23T02:50:58.830Z,57.60
2019-02-23T02:51:31.672Z,57.60
2019-02-23T02:52:04.145Z,57.90
2019-02-23T02:52:36.634Z,58.20
2019-02-23T02:53:09.404Z,58.20
2019-02-23T02:53:42.683Z,58.50
2019-02-23T02:54:15.655Z,58.50
2019-02-23T02:54:48.127Z,58.30
2019-02-23T02:55:20.578Z,58.00
2019-02-23T02:55:53.370Z,57.90
2019-02-23T02:56:26.206Z,58.00
2019-02-23T02:56:59.056Z,57.70
2019-02-23T02:57:31.921Z,58.20
2019-02-23T02:58:04.693Z,57.70
2019-02-23T02:58:37.466Z,57.40
2019-02-23T02:59:09.918Z,57.40
2019-02-23T02:59:42.426Z,57.30
2019-02-23T03:00:14.906Z,57.40
2019-02-23T03:00:47.396Z,57.70
2019-02-23T03:01:19.860Z,58.10
2019-02-23T03:01:52.331Z,58.30
2019-02-23T03:02:24.807Z,58.20
2019-02-23T03:02:57.320Z,58.20
2019-02-23T03:03:30.046Z,58.10
2019-02-23T03:04:02.527Z,58.10
2019-02-23T03:04:35.362Z,58.10
2019-02-23T03:05:08.062Z,57.90
2019-02-23T03:05:40.818Z,57.70
2019-02-23T03:06:13.337Z,57.60
2019-02-23T03:06:46.117Z,57.70
2019-02-23T03:07:18.878Z,57.80
2019-02-23T03:07:51.349Z,57.60
2019-02-23T03:08:23.832Z,57.60
2019-02-23T03:08:56.958Z,57.70
2019-02-23T03:09:29.420Z,57.60
2019-02-23T03:10:02.174Z,57.70
2019-02-23T03:10:34.709Z,58.00
2019-02-23T03:11:07.375Z,57.80
2019-02-23T03:11:39.878Z,57.70
2019-02-23T03:12:12.339Z,57.60
2019-02-23T03:12:44.826Z,57.60
2019-02-23T03:13:17.307Z,57.40
2019-02-23T03:13:49.781Z,57.40
2019-02-23T03:14:22.396Z,57.50
2019-02-23T03:14:54.863Z,57.60
2019-02-23T03:15:27.612Z,57.50
2019-02-23T03:16:00.497Z,57.10
2019-02-23T03:16:32.968Z,56.70
2019-02-23T03:17:05.727Z,56.40
2019-02-23T03:17:38.673Z,56.20
2019-02-23T03:18:11.419Z,56.20
2019-02-23T03:18:43.901Z,56.80
2019-02-23T03:19:16.634Z,55.90
2019-02-23T03:19:49.416Z,55.70
2019-02-23T03:20:21.919Z,55.50
2019-02-23T03:20:54.399Z,55.50
2019-02-23T03:21:26.902Z,55.60
2019-02-23T03:22:00.136Z,55.90
2019-02-23T03:22:32.598Z,56.10
2019-02-23T03:23:05.079Z,56.10
2019-02-23T03:23:37.565Z,55.90
2019-02-23T03:24:10.512Z,55.80
2019-02-23T03:24:43.510Z,56.00
2019-02-23T03:25:16.397Z,56.00
2019-02-23T03:25:49.145Z,56.10
2019-02-23T03:26:21.627Z,56.10
2019-02-23T03:26:54.142Z,56.20
2019-02-23T03:27:26.989Z,56.30
2019-02-23T03:27:59.463Z,56.20
2019-02-23T03:28:31.937Z,56.30
2019-02-23T03:29:04.412Z,56.20
2019-02-23T03:29:36.882Z,56.00
2019-02-23T03:30:10.235Z,55.90
2019-02-23T03:30:42.730Z,55.80
2019-02-23T03:31:15.213Z,55.90
2019-02-23T03:31:48.217Z,55.70
2019-02-23T03:32:20.716Z,55.70
2019-02-23T03:32:53.482Z,55.90
2019-02-23T03:33:25.951Z,56.00
2019-02-23T03:33:58.436Z,55.90
2019-02-23T03:34:31.175Z,55.50
2019-02-23T03:35:03.692Z,55.60
2019-02-23T03:35:36.152Z,55.60
2019-02-23T03:36:08.634Z,55.90
2019-02-23T03:36:41.116Z,56.20
2019-02-23T03:37:13.590Z,56.30
2019-02-23T03:37:46.429Z,56.20
2019-02-23T03:38:19.187Z,56.40
2019-02-23T03:38:51.668Z,56.50
2019-02-23T03:39:24.140Z,56.00
2019-02-23T03:39:56.980Z,55.80
2019-02-23T03:40:30.034Z,55.70
2019-02-23T03:41:02.635Z,55.40
2019-02-23T03:41:35.547Z,55.30
2019-02-23T03:42:08.012Z,55.10
2019-02-23T03:42:41.042Z,54.70
2019-02-23T03:43:14.208Z,54.80
2019-02-23T03:43:46.667Z,54.70
2019-02-23T03:44:19.422Z,55.00
2019-02-23T03:44:52.224Z,54.90
2019-02-23T03:45:24.686Z,54.80
2019-02-23T03:45:57.165Z,54.60
2019-02-23T03:46:29.650Z,54.70
2019-02-23T03:47:02.106Z,54.70
2019-02-23T03:47:34.598Z,54.80
2019-02-23T03:48:07.087Z,54.80
2019-02-23T03:48:39.594Z,54.80
2019-02-23T03:49:12.082Z,54.90
2019-02-23T03:49:44.560Z,55.00
2019-02-23T03:50:17.032Z,54.60
2019-02-23T03:50:50.139Z,54.60
2019-02-23T03:51:22.898Z,54.60
2019-02-23T03:51:55.642Z,55.40
2019-02-23T03:52:28.118Z,54.80
2019-02-23T03:53:00.940Z,54.90
2019-02-23T03:53:33.718Z,54.90
2019-02-23T03:54:06.244Z,55.20
2019-02-23T03:54:38.715Z,55.40
2019-02-23T03:55:11.400Z,55.30
2019-02-23T03:55:43.867Z,55.50
2019-02-23T03:56:16.438Z,55.30
2019-02-23T03:56:49.508Z,55.20
2019-02-23T03:57:21.958Z,55.20
2019-02-23T03:57:54.723Z,55.50
2019-02-23T03:58:27.193Z,55.80
2019-02-23T03:58:59.666Z,56.00
2019-02-23T03:59:32.166Z,56.30
2019-02-23T04:00:05.191Z,56.60
2019-02-23T04:00:37.670Z,56.70
2019-02-23T04:01:10.141Z,56.70
2019-02-23T04:01:43.088Z,56.70
2019-02-23T04:02:15.571Z,56.70
2019-02-23T04:02:48.033Z,56.80
2019-02-23T04:03:20.502Z,56.80
2019-02-23T04:03:53.365Z,56.60
2019-02-23T04:04:26.932Z,56.50
2019-02-23T04:04:59.814Z,56.40
2019-02-23T04:05:32.641Z,56.30
2019-02-23T04:06:05.116Z,56.10
2019-02-23T04:06:37.604Z,55.70
2019-02-23T04:07:10.090Z,55.20
2019-02-23T04:07:42.570Z,55.00
2019-02-23T04:08:15.034Z,55.00
2019-02-23T04:08:48.156Z,55.00
2019-02-23T04:09:20.700Z,55.10
2019-02-23T04:09:53.184Z,55.40
2019-02-23T04:10:25.673Z,55.20
2019-02-23T04:10:58.167Z,55.10
2019-02-23T04:11:30.648Z,55.20
2019-02-23T04:12:03.106Z,55.20
2019-02-23T04:12:35.572Z,55.00
2019-02-23T04:13:08.051Z,55.00
2019-02-23T04:13:40.539Z,55.30
2019-02-23T04:14:13.002Z,55.60
2019-02-23T04:14:45.496Z,55.90
2019-02-23T04:15:17.967Z,56.20
2019-02-23T04:15:50.486Z,56.20
2019-02-23T04:16:23.827Z,56.00
2019-02-23T04:16:56.311Z,56.10
2019-02-23T04:17:28.779Z,56.10
2019-02-23T04:18:01.247Z,56.30
2019-02-23T04:18:33.718Z,56.40
2019-02-23T04:19:06.224Z,56.60
2019-02-23T04:19:38.951Z,56.70
2019-02-23T04:20:11.422Z,56.60
2019-02-23T04:20:44.187Z,56.20
2019-02-23T04:21:17.403Z,56.00
2019-02-23T04:21:49.870Z,56.20
2019-02-23T04:22:22.354Z,56.30
2019-02-23T04:22:54.827Z,56.60
2019-02-23T04:23:27.297Z,56.80
2019-02-23T04:23:59.789Z,56.60
2019-02-23T04:24:32.292Z,56.90
2019-02-23T04:25:04.808Z,56.90
2019-02-23T04:25:37.430Z,56.80
2019-02-23T04:26:10.162Z,56.80
2019-02-23T04:26:42.664Z,56.50
2019-02-23T04:27:15.143Z,56.40
2019-02-23T04:27:47.657Z,56.10
2019-02-23T04:28:20.754Z,56.30
2019-02-23T04:28:53.605Z,56.40
2019-02-23T04:29:26.371Z,56.70
2019-02-23T04:29:58.858Z,57.00
2019-02-23T04:30:31.341Z,57.00
2019-02-23T04:31:04.099Z,56.90
2019-02-23T04:31:36.838Z,56.80
2019-02-23T04:32:09.700Z,57.00
2019-02-23T04:32:42.438Z,57.00
2019-02-23T04:33:15.185Z,57.00
2019-02-23T04:33:47.647Z,57.10
2019-02-23T04:34:20.458Z,56.90
2019-02-23T04:34:52.946Z,57.00
2019-02-23T04:35:25.423Z,57.20
2019-02-23T04:35:58.104Z,57.30
2019-02-23T04:36:30.590Z,57.50
2019-02-23T04:37:03.344Z,57.50
2019-02-23T04:37:35.843Z,57.50
2019-02-23T04:38:08.329Z,57.70
2019-02-23T04:38:41.178Z,57.50
2019-02-23T04:39:13.647Z,57.40
2019-02-23T04:39:46.125Z,57.30
2019-02-23T04:40:18.877Z,57.30
2019-02-23T04:40:51.356Z,57.40
2019-02-23T04:41:23.825Z,57.60
2019-02-23T04:41:56.304Z,57.70
2019-02-23T04:42:29.151Z,57.90
2019-02-23T04:43:01.952Z,57.80
2019-02-23T04:43:34.422Z,57.80
2019-02-23T04:44:07.190Z,57.60
2019-02-23T04:44:39.664Z,57.60
2019-02-23T04:45:12.808Z,57.40
2019-02-23T04:45:45.291Z,57.40
2019-02-23T04:46:17.777Z,57.30
2019-02-23T04:46:50.255Z,57.30
2019-02-23T04:47:22.713Z,57.10
2019-02-23T04:47:55.482Z,57.10
2019-02-23T04:48:28.283Z,57.00
2019-02-23T04:49:00.771Z,57.10
2019-02-23T04:49:33.519Z,57.10
2019-02-23T04:50:06.749Z,57.90
2019-02-23T04:50:39.640Z,57.80
2019-02-23T04:51:14.697Z,57.10
2019-02-23T04:51:46.686Z,57.30
2019-02-23T04:52:19.144Z,57.30
2019-02-23T04:52:51.624Z,57.40
2019-02-23T04:53:24.103Z,57.60
2019-02-23T04:53:56.936Z,57.80
2019-02-23T04:54:31.201Z,58.40
2019-02-23T04:55:03.933Z,57.70
2019-02-23T04:55:36.398Z,57.70
2019-02-23T04:56:08.979Z,57.50
2019-02-23T04:56:41.492Z,57.50
2019-02-23T04:57:13.976Z,57.60
2019-02-23T04:57:46.729Z,57.50
2019-02-23T04:58:19.554Z,57.10
2019-02-23T04:58:52.429Z,57.00
2019-02-23T04:59:24.919Z,57.00
2019-02-23T04:59:57.670Z,56.90
2019-02-23T05:00:30.151Z,56.60
2019-02-23T05:01:02.635Z,56.30
2019-02-23T05:01:35.107Z,56.30
2019-02-23T05:02:07.822Z,56.60
2019-02-23T05:02:40.308Z,56.60
2019-02-23T05:03:13.186Z,56.60
2019-02-23T05:03:46.069Z,56.70
2019-02-23T05:04:18.763Z,56.80
2019-02-23T05:04:51.280Z,56.90
2019-02-23T05:05:24.023Z,57.00
2019-02-23T05:05:56.487Z,56.80
2019-02-23T05:06:28.959Z,56.60
2019-02-23T05:07:01.724Z,56.60
2019-02-23T05:07:34.185Z,56.90
2019-02-23T05:08:07.045Z,57.70
2019-02-23T05:08:39.520Z,57.50
2019-02-23T05:09:12.007Z,57.60
2019-02-23T05:09:44.480Z,57.70
2019-02-23T05:10:16.983Z,57.50
2019-02-23T05:10:49.748Z,57.50
2019-02-23T05:11:22.220Z,57.50
2019-02-23T05:11:54.752Z,57.40
2019-02-23T05:12:27.440Z,57.30
2019-02-23T05:12:59.911Z,57.30
2019-02-23T05:13:32.366Z,57.30
2019-02-23T05:14:05.258Z,56.90
2019-02-23T05:14:37.723Z,56.90
2019-02-23T05:15:10.585Z,56.70
2019-02-23T05:15:43.442Z,56.70
2019-02-23T05:16:15.920Z,56.90
2019-02-23T05:16:48.404Z,56.80
2019-02-23T05:17:21.283Z,56.80
2019-02-23T05:17:55.523Z,56.90
2019-02-23T05:18:28.084Z,57.10
2019-02-23T05:19:00.780Z,58.00
2019-02-23T05:19:33.522Z,57.70
2019-02-23T05:20:06.187Z,57.80
2019-02-23T05:20:38.655Z,57.80
2019-02-23T05:21:11.161Z,57.80
2019-02-23T05:21:44.983Z,57.90
2019-02-23T05:22:17.452Z,57.60
2019-02-23T05:22:49.952Z,57.70
2019-02-23T05:23:22.814Z,57.90
2019-02-23T05:23:55.687Z,58.10
2019-02-23T05:24:28.464Z,57.80
2019-02-23T05:25:00.923Z,57.80
2019-02-23T05:25:33.387Z,58.10
2019-02-23T05:26:05.854Z,58.00
2019-02-23T05:26:38.496Z,58.00
2019-02-23T05:27:11.054Z,57.80
2019-02-23T05:27:43.535Z,57.60
2019-02-23T05:28:15.995Z,57.70
2019-02-23T05:28:48.468Z,57.80
2019-02-23T05:29:20.947Z,58.00
2019-02-23T05:29:53.416Z,57.90
2019-02-23T05:30:26.277Z,58.00
2019-02-23T05:30:58.747Z,57.60
2019-02-23T05:31:31.231Z,57.50
2019-02-23T05:32:04.282Z,57.50
2019-02-23T05:32:37.046Z,57.70
2019-02-23T05:33:09.527Z,57.70
2019-02-23T05:33:42.009Z,57.80
2019-02-23T05:34:14.762Z,58.00
2019-02-23T05:34:47.504Z,58.10
2019-02-23T05:35:20.294Z,58.20
2019-02-23T05:35:52.763Z,58.20
2019-02-23T05:36:25.520Z,58.40
2019-02-23T05:36:58.009Z,58.90
2019-02-23T05:37:31.312Z,58.40
2019-02-23T05:38:04.262Z,58.50
2019-02-23T05:38:37.031Z,58.30
2019-02-23T05:39:09.901Z,58.30
2019-02-23T05:39:42.725Z,58.60
2019-02-23T05:40:15.319Z,58.70
2019-02-23T05:40:47.939Z,58.60
2019-02-23T05:41:20.359Z,58.50
2019-02-23T05:41:53.407Z,58.30
2019-02-23T05:42:25.900Z,58.50
2019-02-23T05:43:01.197Z,58.60
2019-02-23T05:43:32.682Z,58.60
2019-02-23T05:44:05.611Z,58.50
2019-02-23T05:44:38.089Z,58.60
2019-02-23T05:45:10.841Z,58.70
2019-02-23T05:45:43.595Z,58.40
2019-02-23T05:46:16.078Z,58.50
2019-02-23T05:46:49.151Z,58.40
2019-02-23T05:47:21.623Z,58.70
2019-02-23T05:47:54.100Z,58.20
2019-02-23T05:48:27.223Z,58.20
2019-02-23T05:48:59.705Z,58.10
2019-02-23T05:49:32.461Z,58.20
2019-02-23T05:50:05.505Z,58.30
2019-02-23T05:50:38.383Z,57.80
2019-02-23T05:51:10.842Z,57.70
2019-02-23T05:51:43.310Z,57.80
2019-02-23T05:52:16.073Z,58.00
2019-02-23T05:52:48.818Z,58.10
2019-02-23T05:53:21.293Z,58.30
2019-02-23T05:53:53.795Z,58.60
2019-02-23T05:54:26.278Z,58.50
2019-02-23T05:54:58.734Z,58.40
2019-02-23T05:55:31.213Z,58.40
2019-02-23T05:56:03.670Z,58.40
2019-02-23T05:56:36.139Z,58.50
2019-02-23T05:57:08.615Z,58.40
2019-02-23T05:57:41.100Z,58.40
2019-02-23T05:58:13.569Z,58.70
2019-02-23T05:58:46.132Z,58.70
2019-02-23T05:59:18.778Z,59.00
2019-02-23T05:59:51.304Z,59.10
2019-02-23T06:00:23.777Z,59.00
2019-02-23T06:00:56.256Z,58.80
2019-02-23T06:01:28.732Z,58.90
2019-02-23T06:02:01.209Z,58.10
2019-02-23T06:02:33.677Z,57.90
2019-02-23T06:03:06.492Z,57.90
2019-02-23T06:03:38.972Z,58.60
2019-02-23T06:04:11.720Z,58.10
2019-02-23T06:04:45.023Z,58.10
2019-02-23T06:05:17.433Z,58.00
2019-02-23T06:05:50.446Z,58.00
2019-02-23T06:06:22.918Z,57.80
2019-02-23T06:06:55.941Z,57.70
2019-02-23T06:07:28.637Z,57.70
2019-02-23T06:08:01.113Z,57.60
2019-02-23T06:08:33.964Z,57.50
2019-02-23T06:09:06.824Z,57.60
2019-02-23T06:09:39.618Z,57.90
2019-02-23T06:10:12.132Z,57.80
2019-02-23T06:10:45.029Z,58.00
2019-02-23T06:11:17.499Z,58.10
2019-02-23T06:11:49.987Z,58.30
2019-02-23T06:12:23.137Z,58.50
2019-02-23T06:12:55.622Z,58.70
2019-02-23T06:13:28.081Z,58.90
2019-02-23T06:14:00.556Z,59.00
2019-02-23T06:14:33.024Z,58.80
2019-02-23T06:15:08.421Z,58.70
2019-02-23T06:15:40.922Z,59.10
2019-02-23T06:16:13.394Z,58.30
2019-02-23T06:16:45.873Z,58.30
2019-02-23T06:17:18.348Z,58.20
2019-02-23T06:17:50.814Z,58.20
2019-02-23T06:18:23.575Z,58.00
2019-02-23T06:18:56.050Z,58.00
2019-02-23T06:19:28.521Z,58.30
2019-02-23T06:20:00.989Z,58.40
2019-02-23T06:20:33.459Z,58.30
2019-02-23T06:21:06.300Z,58.40
2019-02-23T06:21:52.341Z,58.40
2019-02-23T06:22:13.055Z,58.50
2019-02-23T06:22:46.894Z,58.50
2019-02-23T06:23:19.609Z,58.30
2019-02-23T06:23:52.105Z,58.50
2019-02-23T06:24:24.635Z,58.40
2019-02-23T06:24:57.055Z,58.50
2019-02-23T06:25:29.872Z,58.30
2019-02-23T06:26:02.359Z,58.30
2019-02-23T06:26:34.861Z,58.20
2019-02-23T06:27:07.715Z,58.10
2019-02-23T06:27:40.507Z,58.10
2019-02-23T06:28:12.970Z,58.10
2019-02-23T06:28:46.001Z,58.20
2019-02-23T06:29:18.471Z,58.30
2019-02-23T06:29:50.949Z,58.30
2019-02-23T06:30:23.409Z,58.30
2019-02-23T06:30:56.164Z,58.30
2019-02-23T06:31:28.658Z,58.20
2019-02-23T06:32:01.453Z,58.30
2019-02-23T06:32:33.921Z,58.60
2019-02-23T06:33:06.402Z,58.60
2019-02-23T06:33:38.870Z,58.70
2019-02-23T06:34:16.046Z,58.80
2019-02-23T06:34:46.230Z,58.90
2019-02-23T06:35:18.711Z,58.60
2019-02-23T06:35:51.453Z,58.50
2019-02-23T06:36:23.933Z,58.50
2019-02-23T06:36:56.691Z,58.50
2019-02-23T06:37:29.216Z,58.30
2019-02-23T06:38:02.006Z,58.30
2019-02-23T06:38:34.492Z,58.50
2019-02-23T06:39:06.977Z,58.50
2019-02-23T06:39:39.451Z,58.50
2019-02-23T06:40:11.945Z,58.50
2019-02-23T06:40:44.393Z,58.60
2019-02-23T06:41:16.864Z,58.60
2019-02-23T06:41:49.347Z,58.60
2019-02-23T06:42:21.822Z,58.80
2019-02-23T06:42:54.344Z,58.90
2019-02-23T06:43:26.828Z,59.00
2019-02-23T06:43:59.283Z,58.90
2019-02-23T06:44:31.760Z,59.00
2019-02-23T06:45:04.452Z,59.10
2019-02-23T06:45:36.923Z,58.90
2019-02-23T06:46:09.417Z,58.70
2019-02-23T06:46:41.894Z,58.20
2019-02-23T06:47:14.387Z,58.00
2019-02-23T06:47:46.859Z,57.60
2019-02-23T06:48:20.033Z,57.00
2019-02-23T06:48:52.685Z,56.90
2019-02-23T06:49:25.493Z,57.10
2019-02-23T06:49:57.951Z,57.10
2019-02-23T06:50:30.742Z,57.20
2019-02-23T06:51:03.231Z,57.10
2019-02-23T06:51:35.694Z,56.90
2019-02-23T06:52:08.451Z,56.80
2019-02-23T06:52:40.938Z,56.80
2019-02-23T06:53:13.419Z,57.00
2019-02-23T06:53:45.910Z,57.00
2019-02-23T06:54:18.369Z,57.10
2019-02-23T06:54:50.863Z,57.00
2019-02-23T06:55:23.356Z,57.00
2019-02-23T06:55:56.107Z,56.00
2019-02-23T06:56:28.577Z,56.10
2019-02-23T06:57:01.497Z,56.40
2019-02-23T06:57:34.625Z,56.80
2019-02-23T06:58:07.090Z,56.90
2019-02-23T06:58:39.566Z,56.50
2019-02-23T06:59:12.484Z,56.40
2019-02-23T06:59:44.961Z,56.10
2019-02-23T07:00:17.449Z,56.10
2019-02-23T07:00:50.194Z,56.20
2019-02-23T07:01:22.699Z,56.40
2019-02-23T07:01:56.715Z,56.40